Time;durP1;ratioP1;P1;durP2;ratioP2;P2;SDS_P1;SDS_P2;PMS_P1;PMS_P2;Temp;Humidity;BMP_temperature;BMP_pressure;BME280_temperature;BME280_humidity;BME280_pressure;Samples;Min_cycle;Max_cycle;Signal;HPM_P1;HPM_P2
2023/09/11 00:01:17;;;;;;;13.40;10.63;;;20.30;99.90;;;;;;4869317;29;20188;-83
2023/09/11 00:03:43;;;;;;;15.73;11.13;;;20.20;99.90;;;;;;4868986;29;20184;-84
2023/09/11 00:06:08;;;;;;;13.17;11.97;;;20.10;99.90;;;;;;4866868;29;20475;-83
2023/09/11 00:08:34;;;;;;;13.57;11.83;;;20.10;99.90;;;;;;4866227;29;20637;-84
2023/09/11 00:11:00;;;;;;;12.40;11.30;;;20.10;99.90;;;;;;4867074;29;20192;-82
2023/09/11 00:13:26;;;;;;;15.93;12.23;;;20.10;99.90;;;;;;4867814;29;20271;-83
2023/09/11 00:15:52;;;;;;;11.60;10.33;;;20.10;99.90;;;;;;4869592;29;20193;-84
2023/09/11 00:18:17;;;;;;;13.27;12.07;;;20.00;99.90;;;;;;4867325;29;20473;-83
2023/09/11 00:20:43;;;;;;;13.93;10.80;;;20.00;99.90;;;;;;4868337;29;20192;-82
2023/09/11 00:23:08;;;;;;;15.60;11.27;;;19.90;99.90;;;;;;4869350;29;20191;-83
2023/09/11 00:25:37;;;;;;;14.83;10.63;;;19.90;99.90;;;;;;4867436;29;20557;-83
2023/09/11 00:28:03;;;;;;;11.90;10.37;;;19.80;99.90;;;;;;4868540;29;20188;-83
2023/09/11 00:30:29;;;;;;;16.97;10.97;;;19.80;99.90;;;;;;4869275;29;20828;-83
2023/09/11 00:32:54;;;;;;;13.03;11.47;;;19.80;99.90;;;;;;4872328;29;20648;-83
2023/09/11 00:35:20;;;;;;;13.07;11.77;;;19.80;99.90;;;;;;4879145;29;20191;-83
2023/09/11 00:37:46;;;;;;;14.50;11.10;;;19.80;99.90;;;;;;4862610;29;20224;-83
2023/09/11 00:40:11;;;;;;;17.27;11.87;;;19.80;99.90;;;;;;4873578;29;20188;-84
2023/09/11 00:42:37;;;;;;;13.30;12.00;;;19.70;99.90;;;;;;4867960;29;20250;-83
2023/09/11 00:45:04;;;;;;;12.80;11.10;;;19.70;99.90;;;;;;4864092;29;20192;-83
2023/09/11 00:47:29;;;;;;;14.40;11.60;;;19.80;99.90;;;;;;4868006;29;20417;-84
2023/09/11 00:49:58;;;;;;;14.47;11.30;;;19.80;99.90;;;;;;4872286;29;20943;-83
2023/09/11 00:52:24;;;;;;;17.23;11.30;;;19.70;99.90;;;;;;4865916;29;20392;-83
2023/09/11 00:54:53;;;;;;;13.20;10.43;;;19.70;99.90;;;;;;4885443;29;20428;-83
2023/09/11 00:57:20;;;;;;;11.93;10.80;;;19.70;99.90;;;;;;4887760;29;20440;-83
2023/09/11 00:59:48;;;;;;;13.13;11.77;;;19.70;99.90;;;;;;4886390;29;20424;-84
2023/09/11 01:02:14;;;;;;;12.17;10.90;;;19.70;99.90;;;;;;4889010;29;20476;-83
2023/09/11 01:04:44;;;;;;;13.60;10.70;;;19.70;99.90;;;;;;4887137;29;20970;-84
2023/09/11 01:07:12;;;;;;;13.33;11.50;;;19.60;99.90;;;;;;4884242;29;20429;-83
2023/09/11 01:09:40;;;;;;;16.97;10.97;;;19.60;99.90;;;;;;4881264;29;20394;-83
2023/09/11 01:12:06;;;;;;;11.00;9.77;;;19.60;99.90;;;;;;4882263;29;20781;-83
2023/09/11 01:14:32;;;;;;;12.77;11.10;;;19.60;99.90;;;;;;4864785;29;20396;-83
2023/09/11 01:17:09;;;;;;;11.93;10.60;;;19.50;99.90;;;;;;4862081;29;20425;-83
2023/09/11 01:19:48;;;;;;;14.20;11.23;;;19.50;99.90;;;;;;4861966;29;20547;-85
2023/09/11 01:22:22;;;;;;;14.20;11.70;;;19.40;99.90;;;;;;4862098;29;20475;-83
2023/09/11 01:25:18;;;;;;;20.87;13.77;;;19.40;99.90;;;;;;4861099;29;20437;-83
2023/09/11 01:28:14;;;;;;;11.77;10.63;;;19.50;99.90;;;;;;4861792;29;20449;-83
2023/09/11 01:30:42;;;;;;;12.27;10.70;;;19.30;99.90;;;;;;4862159;29;20793;-83
2023/09/11 01:33:08;;;;;;;12.53;11.37;;;19.20;99.90;;;;;;4862181;29;20388;-83
2023/09/11 01:35:33;;;;;;;11.03;9.97;;;19.20;99.90;;;;;;4861095;29;20467;-83
2023/09/11 01:37:59;;;;;;;16.57;12.40;;;19.10;99.90;;;;;;4861779;29;20208;-83
2023/09/11 01:40:27;;;;;;;11.90;10.43;;;19.10;99.90;;;;;;4862142;29;20192;-83
2023/09/11 01:42:56;;;;;;;18.40;12.40;;;19.00;99.90;;;;;;4861913;29;20340;-83
2023/09/11 01:45:23;;;;;;;15.73;13.73;;;19.10;99.90;;;;;;4861778;29;20417;-83
2023/09/11 01:47:51;;;;;;;18.40;11.27;;;19.10;99.90;;;;;;4861496;29;20445;-83
2023/09/11 01:50:19;;;;;;;15.00;11.80;;;19.10;99.90;;;;;;4862553;29;20406;-83
2023/09/11 01:52:49;;;;;;;13.33;11.60;;;19.00;99.90;;;;;;4862620;29;20417;-84
2023/09/11 01:55:15;;;;;;;13.10;11.70;;;18.90;99.90;;;;;;4861898;29;20433;-83
2023/09/11 01:57:40;;;;;;;13.67;11.23;;;18.90;99.90;;;;;;4854316;29;20879;-83
2023/09/11 02:00:08;;;;;;;15.37;12.10;;;18.80;99.90;;;;;;4843906;29;20522;-83
2023/09/11 02:02:33;;;;;;;14.70;12.67;;;18.80;99.90;;;;;;4843742;29;20189;-83
2023/09/11 02:05:00;;;;;;;13.20;11.53;;;18.70;99.90;;;;;;4843217;29;20539;-83
2023/09/11 02:07:25;;;;;;;13.13;11.77;;;18.70;99.90;;;;;;4843888;29;20222;-83
2023/09/11 02:09:51;;;;;;;14.50;11.80;;;18.70;99.90;;;;;;4843060;29;20884;-83
2023/09/11 02:12:16;;;;;;;13.70;11.80;;;18.70;99.90;;;;;;4843168;29;20192;-83
2023/09/11 02:14:42;;;;;;;12.33;11.13;;;18.70;99.90;;;;;;4843031;29;20209;-83
2023/09/11 02:17:07;;;;;;;12.67;11.37;;;18.70;99.90;;;;;;4843038;29;20662;-83
2023/09/11 02:19:33;;;;;;;13.23;11.80;;;18.70;99.90;;;;;;4842833;29;20239;-83
2023/09/11 02:22:00;;;;;;;17.73;13.37;;;18.70;99.90;;;;;;4843044;29;20197;-83
2023/09/11 02:24:26;;;;;;;13.20;11.40;;;18.60;99.90;;;;;;4846982;29;20196;-83
2023/09/11 02:26:53;;;;;;;15.33;11.60;;;18.60;99.90;;;;;;4856198;29;20415;-83
2023/09/11 02:29:18;;;;;;;14.50;13.03;;;18.60;99.90;;;;;;4864306;29;20566;-83
2023/09/11 02:31:44;;;;;;;16.20;13.37;;;18.50;99.90;;;;;;4866297;29;20432;-83
2023/09/11 02:34:09;;;;;;;15.57;12.00;;;18.60;99.90;;;;;;4866482;29;20184;-83
2023/09/11 02:36:35;;;;;;;15.90;12.53;;;18.60;99.90;;;;;;4865837;29;20192;-82
2023/09/11 02:39:00;;;;;;;12.00;10.77;;;18.50;99.90;;;;;;4863864;29;20220;-83
2023/09/11 02:41:26;;;;;;;19.13;12.97;;;18.50;99.90;;;;;;4865723;29;20196;-83
2023/09/11 02:43:52;;;;;;;15.90;10.97;;;18.50;99.90;;;;;;4865222;29;20244;-83
2023/09/11 02:46:17;;;;;;;13.50;12.20;;;18.50;99.90;;;;;;4865766;29;20645;-83
2023/09/11 02:48:47;;;;;;;12.53;11.33;;;18.50;99.90;;;;;;4865065;29;20576;-84
2023/09/11 02:51:14;;;;;;;14.77;10.93;;;18.50;99.90;;;;;;4865725;29;20180;-83
2023/09/11 02:53:39;;;;;;;14.63;11.07;;;18.50;99.90;;;;;;4865487;29;20485;-83
2023/09/11 02:56:05;;;;;;;12.13;10.77;;;18.60;99.90;;;;;;4865681;29;20902;-83
2023/09/11 02:58:31;;;;;;;15.40;11.47;;;18.50;99.90;;;;;;4861627;29;20208;-83
2023/09/11 03:01:06;;;;;;;15.13;11.17;;;18.50;99.90;;;;;;4862039;29;20332;-83
2023/09/11 03:03:31;;;;;;;12.83;11.50;;;18.60;99.90;;;;;;4863606;29;20436;-83
2023/09/11 03:06:01;;;;;;;16.67;11.27;;;18.60;99.90;;;;;;4864356;29;20811;-83
2023/09/11 03:08:28;;;;;;;15.83;11.20;;;18.50;99.90;;;;;;4864320;29;20262;-83
2023/09/11 03:10:54;;;;;;;17.60;11.63;;;18.50;99.90;;;;;;4864348;29;20429;-82
2023/09/11 03:13:20;;;;;;;16.03;12.13;;;18.50;99.90;;;;;;4864739;29;20417;-83
2023/09/11 03:15:45;;;;;;;14.10;11.77;;;18.50;99.90;;;;;;4864651;29;20417;-83
2023/09/11 03:18:12;;;;;;;12.20;11.00;;;18.50;99.90;;;;;;4864825;29;20212;-83
2023/09/11 03:20:38;;;;;;;14.77;10.73;;;18.50;99.90;;;;;;4864717;29;20188;-83
2023/09/11 03:23:04;;;;;;;12.73;11.53;;;18.40;99.90;;;;;;4864149;29;20452;-83
2023/09/11 03:25:34;;;;;;;11.63;10.23;;;18.40;99.90;;;;;;4856432;29;20980;-85
2023/09/11 03:28:00;;;;;;;15.40;10.67;;;18.30;99.90;;;;;;4855351;29;20440;-83
2023/09/11 03:30:26;;;;;;;17.37;12.30;;;18.30;99.90;;;;;;4863412;29;20432;-83
2023/09/11 03:32:51;;;;;;;15.60;11.37;;;18.30;99.90;;;;;;4863596;29;20504;-82
2023/09/11 03:35:17;;;;;;;11.80;10.67;;;18.30;99.90;;;;;;4862840;29;20185;-83
2023/09/11 03:37:42;;;;;;;11.20;10.10;;;18.30;99.90;;;;;;4863950;29;20189;-83
2023/09/11 03:40:13;;;;;;;11.63;10.00;;;18.20;99.90;;;;;;4863336;29;20192;-83
2023/09/11 03:42:38;;;;;;;16.10;11.00;;;18.20;99.90;;;;;;4864268;29;20184;-83
2023/09/11 03:45:05;;;;;;;10.10;9.17;;;18.20;99.90;;;;;;4863805;29;20490;-83
2023/09/11 03:47:31;;;;;;;13.93;11.00;;;18.20;99.90;;;;;;4864307;29;20342;-83
2023/09/11 03:49:56;;;;;;;14.03;9.73;;;18.20;99.90;;;;;;4863787;29;20494;-83
2023/09/11 03:52:22;;;;;;;13.03;10.90;;;18.20;99.90;;;;;;4863406;29;20187;-83
2023/09/11 03:54:48;;;;;;;14.23;10.83;;;18.20;99.90;;;;;;4862318;29;20190;-83
2023/09/11 03:57:13;;;;;;;16.60;9.27;;;18.20;99.90;;;;;;4845932;29;20211;-83
2023/09/11 03:59:39;;;;;;;14.77;9.63;;;18.20;99.90;;;;;;4845882;29;20686;-83
2023/09/11 04:02:04;;;;;;;15.40;9.80;;;18.20;99.90;;;;;;4845165;29;20240;-83
2023/09/11 04:04:30;;;;;;;11.03;9.87;;;18.20;99.90;;;;;;4845047;29;20247;-83
2023/09/11 04:06:56;;;;;;;14.70;9.70;;;18.20;99.90;;;;;;4844745;29;20268;-83
2023/09/11 04:09:21;;;;;;;17.83;9.17;;;18.20;99.90;;;;;;4845380;29;20193;-83
2023/09/11 04:11:47;;;;;;;12.43;9.23;;;18.20;99.90;;;;;;4844648;29;20191;-84
2023/09/11 04:14:12;;;;;;;9.70;8.20;;;18.20;99.90;;;;;;4844661;29;20556;-84
2023/09/11 04:16:38;;;;;;;12.77;8.77;;;18.20;99.90;;;;;;4844892;29;20711;-83
2023/09/11 04:19:04;;;;;;;10.60;9.47;;;18.20;99.90;;;;;;4844599;29;20213;-83
2023/09/11 04:21:29;;;;;;;12.53;7.90;;;18.30;99.90;;;;;;4844644;29;20257;-83
2023/09/11 04:23:55;;;;;;;17.17;9.70;;;18.20;99.90;;;;;;4845006;29;20189;-84
2023/09/11 04:26:20;;;;;;;18.50;9.47;;;18.20;99.90;;;;;;4844906;29;20711;-83
2023/09/11 04:28:46;;;;;;;10.30;9.30;;;18.20;99.90;;;;;;4845534;29;20188;-83
2023/09/11 04:31:12;;;;;;;13.20;8.97;;;18.20;99.90;;;;;;4862191;29;20192;-83
2023/09/11 04:33:37;;;;;;;15.47;8.87;;;18.20;99.90;;;;;;4862882;29;20276;-83
2023/09/11 04:36:03;;;;;;;15.80;9.30;;;18.20;99.90;;;;;;4861434;29;20184;-83
2023/09/11 04:38:29;;;;;;;15.50;8.87;;;18.20;99.90;;;;;;4862316;29;20609;-83
2023/09/11 04:40:56;;;;;;;17.17;9.47;;;18.20;99.90;;;;;;4864324;29;20558;-86
2023/09/11 04:43:22;;;;;;;11.13;8.70;;;18.20;99.90;;;;;;4863652;29;20192;-83
2023/09/11 04:45:48;;;;;;;13.13;8.90;;;18.20;99.90;;;;;;4862582;29;20865;-83
2023/09/11 04:48:13;;;;;;;13.40;8.50;;;18.20;99.90;;;;;;4863090;29;20442;-82
2023/09/11 04:50:39;;;;;;;12.87;8.07;;;18.20;99.90;;;;;;4860937;29;20208;-83
2023/09/11 04:53:04;;;;;;;15.50;8.57;;;18.20;99.90;;;;;;4860558;29;20188;-84
2023/09/11 04:55:30;;;;;;;10.40;7.70;;;18.20;99.90;;;;;;4858916;29;20259;-84
2023/09/11 04:57:55;;;;;;;11.77;8.30;;;18.20;99.90;;;;;;4864915;29;20669;-83
2023/09/11 05:00:21;;;;;;;9.70;7.40;;;18.20;99.90;;;;;;4865892;29;20554;-83
2023/09/11 05:02:48;;;;;;;10.90;8.50;;;18.20;99.90;;;;;;4865382;29;20240;-82
2023/09/11 05:05:14;;;;;;;16.80;9.20;;;18.20;99.90;;;;;;4862541;29;20242;-82
2023/09/11 05:07:45;;;;;;;11.23;8.07;;;18.20;99.90;;;;;;4862467;29;20432;-86
2023/09/11 05:10:14;;;;;;;15.43;8.30;;;18.20;99.90;;;;;;4845336;29;20512;-86
2023/09/11 05:12:40;;;;;;;15.60;8.17;;;18.20;99.90;;;;;;4856507;29;20555;-86
2023/09/11 05:15:06;;;;;;;10.03;7.97;;;18.30;99.90;;;;;;4837530;29;20455;-85
2023/09/11 05:17:32;;;;;;;11.73;7.80;;;18.30;99.90;;;;;;4862950;29;20802;-85
2023/09/11 05:19:57;;;;;;;16.47;9.20;;;18.30;99.90;;;;;;4862529;29;20412;-85
2023/09/11 05:22:23;;;;;;;11.23;9.10;;;18.30;99.90;;;;;;4862364;29;20184;-84
2023/09/11 05:24:49;;;;;;;11.90;8.40;;;18.30;99.90;;;;;;4862467;29;20220;-84
2023/09/11 05:27:16;;;;;;;13.13;8.07;;;18.30;99.90;;;;;;4860764;29;20192;-84
2023/09/11 05:29:42;;;;;;;13.27;8.53;;;18.30;99.90;;;;;;4861156;29;20184;-84
2023/09/11 05:32:07;;;;;;;11.80;8.37;;;18.30;99.90;;;;;;4862325;29;20471;-84
2023/09/11 05:34:33;;;;;;;12.50;7.57;;;18.30;99.90;;;;;;4862350;29;20545;-84
2023/09/11 05:36:58;;;;;;;8.80;7.90;;;18.40;99.90;;;;;;4860869;29;20292;-84
2023/09/11 05:39:24;;;;;;;12.10;7.80;;;18.40;99.90;;;;;;4862020;29;20212;-84
2023/09/11 05:41:50;;;;;;;12.80;8.77;;;18.30;99.90;;;;;;4862030;29;20203;-84
2023/09/11 05:44:15;;;;;;;11.37;7.93;;;18.40;99.90;;;;;;4861957;29;20191;-84
2023/09/11 05:46:41;;;;;;;12.60;9.20;;;18.40;99.90;;;;;;4861091;29;20545;-84
2023/09/11 05:49:06;;;;;;;13.00;7.97;;;18.40;99.90;;;;;;4862174;29;20199;-84
2023/09/11 05:51:32;;;;;;;10.93;8.07;;;18.50;99.90;;;;;;4862327;29;20191;-84
2023/09/11 05:53:57;;;;;;;15.83;8.87;;;18.50;99.90;;;;;;4860865;29;20192;-84
2023/09/11 05:56:23;;;;;;;14.13;9.83;;;18.50;99.90;;;;;;4862504;29;20199;-84
2023/09/11 05:58:49;;;;;;;10.77;7.67;;;18.60;99.90;;;;;;4867051;29;20259;-84
2023/09/11 06:01:14;;;;;;;10.50;9.40;;;18.70;99.90;;;;;;4872020;29;20184;-85
2023/09/11 06:03:40;;;;;;;17.03;9.47;;;18.70;99.90;;;;;;4863008;29;20638;-84
2023/09/11 06:06:06;;;;;;;13.57;8.27;;;18.80;99.90;;;;;;4866741;29;20236;-84
2023/09/11 06:08:32;;;;;;;18.23;7.90;;;18.90;99.90;;;;;;4866169;29;20619;-84
2023/09/11 06:10:59;;;;;;;9.73;7.67;;;19.00;99.90;;;;;;4866163;29;20433;-84
2023/09/11 06:13:26;;;;;;;12.10;8.50;;;19.00;99.90;;;;;;4842147;29;20807;-84
2023/09/11 06:15:51;;;;;;;11.77;8.33;;;19.10;99.90;;;;;;4850173;29;20457;-84
2023/09/11 06:18:17;;;;;;;11.47;6.60;;;19.20;99.90;;;;;;4849029;29;20460;-84
2023/09/11 06:20:43;;;;;;;15.77;8.13;;;19.30;99.90;;;;;;4848228;29;20193;-83
2023/09/11 06:23:10;;;;;;;13.53;7.50;;;19.30;99.90;;;;;;4859475;29;20283;-84
2023/09/11 06:25:35;;;;;;;9.67;7.70;;;19.40;99.90;;;;;;4864453;29;20257;-84
2023/09/11 06:28:01;;;;;;;13.90;8.50;;;19.60;99.90;;;;;;4864048;29;20429;-84
2023/09/11 06:30:27;;;;;;;14.90;7.97;;;19.70;99.90;;;;;;4864347;29;20188;-84
2023/09/11 06:32:53;;;;;;;11.13;7.27;;;19.80;99.90;;;;;;4864988;29;20479;-84
2023/09/11 06:35:18;;;;;;;13.27;7.60;;;19.90;99.90;;;;;;4865274;29;20634;-85
2023/09/11 06:37:44;;;;;;;15.90;7.93;;;20.00;99.90;;;;;;4865924;29;20189;-84
2023/09/11 06:40:10;;;;;;;13.13;7.80;;;20.10;99.90;;;;;;4866709;29;20199;-86
2023/09/11 06:42:36;;;;;;;17.73;9.17;;;20.20;99.90;;;;;;4866257;29;20240;-84
2023/09/11 06:45:03;;;;;;;12.00;7.87;;;20.30;99.90;;;;;;4871504;29;20474;-85
2023/09/11 06:47:28;;;;;;;18.00;8.47;;;20.40;99.90;;;;;;4856936;29;20389;-86
2023/09/11 06:49:54;;;;;;;17.47;10.00;;;20.50;99.90;;;;;;4847238;29;20402;-85
2023/09/11 06:52:20;;;;;;;12.53;8.30;;;20.60;99.90;;;;;;4845263;29;20189;-84
2023/09/11 06:54:46;;;;;;;17.47;8.20;;;20.60;99.90;;;;;;4858422;29;20644;-85
2023/09/11 06:57:11;;;;;;;17.90;7.13;;;20.80;99.90;;;;;;4864466;29;20582;-85
2023/09/11 06:59:37;;;;;;;12.77;8.17;;;20.90;99.90;;;;;;4863576;29;20700;-85
2023/09/11 07:02:03;;;;;;;11.03;7.47;;;21.00;99.90;;;;;;4864916;29;20276;-85
2023/09/11 07:04:30;;;;;;;17.37;8.60;;;21.10;99.90;;;;;;4864784;29;20772;-86
2023/09/11 07:06:56;;;;;;;10.20;7.70;;;21.30;99.90;;;;;;4864735;29;20184;-88
2023/09/11 07:09:23;;;;;;;11.87;7.23;;;21.30;99.90;;;;;;4864764;29;20440;-84
2023/09/11 07:11:50;;;;;;;12.70;7.00;;;21.50;99.90;;;;;;4864486;29;20488;-85
2023/09/11 07:14:23;;;;;;;16.90;8.00;;;21.60;99.90;;;;;;4863585;29;20440;-85
2023/09/11 07:16:49;;;;;;;11.93;7.90;;;21.70;99.90;;;;;;4864010;29;20941;-85
2023/09/11 07:19:15;;;;;;;15.77;8.40;;;21.70;99.90;;;;;;4863991;29;20457;-85
2023/09/11 07:21:41;;;;;;;13.00;8.20;;;21.90;99.90;;;;;;4862981;29;20444;-86
2023/09/11 07:24:07;;;;;;;11.87;7.37;;;21.90;99.90;;;;;;4862721;29;20197;-85
2023/09/11 07:26:33;;;;;;;12.37;6.97;;;22.00;99.90;;;;;;4864208;29;20425;-85
2023/09/11 07:29:02;;;;;;;19.33;7.40;;;22.10;99.90;;;;;;4867894;29;20436;-85
2023/09/11 07:31:29;;;;;;;15.20;7.37;;;22.20;99.90;;;;;;4864662;29;20215;-85
2023/09/11 07:33:54;;;;;;;15.50;8.17;;;22.30;99.90;;;;;;4862965;29;20867;-85
2023/09/11 07:36:20;;;;;;;9.77;7.57;;;22.30;99.90;;;;;;4863805;29;20460;-84
2023/09/11 07:38:46;;;;;;;13.43;7.73;;;22.40;99.90;;;;;;4864086;29;20573;-85
2023/09/11 07:41:17;;;;;;;14.00;8.60;;;22.50;99.90;;;;;;4864082;29;20617;-86
2023/09/11 07:43:46;;;;;;;11.50;7.90;;;22.70;99.90;;;;;;4864059;29;20417;-85
2023/09/11 07:46:12;;;;;;;12.50;7.50;;;22.80;99.90;;;;;;4862656;29;20430;-87
2023/09/11 07:48:37;;;;;;;12.07;8.47;;;22.90;99.90;;;;;;4863958;29;20489;-85
2023/09/11 07:51:03;;;;;;;12.67;7.20;;;22.90;99.90;;;;;;4863473;29;20420;-84
2023/09/11 07:53:29;;;;;;;18.43;8.57;;;23.00;99.90;;;;;;4863460;29;20188;-84
2023/09/11 07:55:54;;;;;;;10.50;7.10;;;23.20;99.90;;;;;;4863412;29;20593;-87
2023/09/11 07:58:20;;;;;;;11.63;7.40;;;23.30;99.90;;;;;;4861731;29;20280;-86
2023/09/11 08:00:45;;;;;;;14.77;7.43;;;23.40;99.90;;;;;;4863447;29;20233;-85
2023/09/11 08:03:11;;;;;;;10.50;7.63;;;23.40;99.90;;;;;;4863019;29;20223;-85
2023/09/11 08:05:36;;;;;;;9.67;8.00;;;23.50;99.90;;;;;;4863335;29;20646;-86
2023/09/11 08:08:02;;;;;;;13.20;7.83;;;23.70;99.90;;;;;;4863361;29;20195;-86
2023/09/11 08:10:29;;;;;;;13.30;8.20;;;23.80;99.90;;;;;;4863537;29;20605;-86
2023/09/11 08:12:55;;;;;;;12.10;7.20;;;23.80;99.90;;;;;;4863394;29;20417;-85
2023/09/11 08:15:20;;;;;;;11.13;7.27;;;24.00;99.90;;;;;;4846429;29;20854;-85
2023/09/11 08:17:46;;;;;;;15.07;8.07;;;24.10;99.90;;;;;;4862265;29;20477;-86
2023/09/11 08:20:12;;;;;;;9.73;6.70;;;24.20;99.90;;;;;;4861691;29;20646;-87
2023/09/11 08:22:39;;;;;;;14.23;7.37;;;24.20;99.90;;;;;;4863141;29;20187;-86
2023/09/11 08:25:05;;;;;;;15.90;7.70;;;24.30;99.90;;;;;;4862665;29;20425;-85
2023/09/11 08:27:31;;;;;;;15.03;7.60;;;24.40;99.90;;;;;;4861658;29;20436;-85
2023/09/11 08:29:57;;;;;;;13.07;7.90;;;24.50;99.90;;;;;;4863122;29;20413;-85
2023/09/11 08:32:23;;;;;;;18.50;8.40;;;24.70;99.90;;;;;;4862680;29;20421;-85
2023/09/11 08:34:49;;;;;;;23.77;6.80;;;25.10;99.90;;;;;;4862790;29;20490;-86
2023/09/11 08:37:14;;;;;;;10.03;6.60;;;25.40;99.90;;;;;;4862439;29;20634;-86
2023/09/11 08:39:40;;;;;;;13.83;6.27;;;25.50;99.90;;;;;;4862458;29;20749;-86
2023/09/11 08:42:08;;;;;;;17.53;7.47;;;25.90;99.90;;;;;;4862432;29;20294;-86
2023/09/11 08:44:33;;;;;;;10.83;6.40;;;26.10;99.90;;;;;;4863105;29;20191;-84
2023/09/11 08:47:03;;;;;;;7.20;5.47;;;26.20;99.90;;;;;;4863518;29;20421;-85
2023/09/11 08:49:37;;;;;;;9.87;7.40;;;26.50;99.90;;;;;;4864522;29;20192;-86
2023/09/11 08:52:05;;;;;;;15.23;6.77;;;26.90;99.90;;;;;;4862466;29;20414;-89
2023/09/11 08:54:40;;;;;;;9.93;5.60;;;27.20;99.90;;;;;;4862239;29;20424;-87
2023/09/11 08:57:06;;;;;;;11.00;5.97;;;27.40;99.90;;;;;;4860683;29;20440;-85
2023/09/11 08:59:36;;;;;;;12.00;7.70;;;27.60;99.90;;;;;;4862013;29;20598;-85
2023/09/11 09:02:03;;;;;;;13.27;6.93;;;27.50;99.90;;;;;;4862079;29;20418;-85
2023/09/11 09:04:30;;;;;;;14.53;6.87;;;27.80;99.90;;;;;;4861533;29;20480;-85
2023/09/11 09:06:56;;;;;;;11.60;7.73;;;28.60;99.90;;;;;;4861834;29;20515;-86
2023/09/11 09:09:22;;;;;;;11.67;6.90;;;28.70;99.90;;;;;;4861816;29;20429;-86
2023/09/11 09:11:48;;;;;;;17.50;7.47;;;28.40;99.90;;;;;;4862376;29;20428;-85
2023/09/11 09:14:20;;;;;;;15.60;7.97;;;28.50;99.90;;;;;;4861333;29;20192;-86
2023/09/11 09:16:47;;;;;;;11.00;6.73;;;29.00;99.90;;;;;;4861710;29;20789;-85
2023/09/11 09:19:12;;;;;;;15.90;7.43;;;29.70;99.90;;;;;;4861238;29;20465;-86
2023/09/11 09:22:07;;;;;;;14.03;6.97;;;29.80;99.90;;;;;;4861625;29;20432;-86
2023/09/11 09:24:37;;;;;;;13.40;7.67;;;29.60;99.90;;;;;;4861945;29;20180;-86
2023/09/11 09:27:05;;;;;;;18.57;8.07;;;30.20;99.90;;;;;;4860526;29;20440;-85
2023/09/11 09:29:38;;;;;;;9.60;6.67;;;30.30;99.90;;;;;;4861757;29;20497;-85
2023/09/11 09:32:06;;;;;;;8.50;6.00;;;30.40;99.90;;;;;;4862192;29;20421;-85
2023/09/11 09:34:33;;;;;;;9.40;6.03;;;30.30;99.90;;;;;;4848546;29;20938;-85
2023/09/11 09:37:00;;;;;;;7.80;5.20;;;30.50;99.90;;;;;;4843160;29;20790;-84
2023/09/11 09:39:28;;;;;;;10.37;5.53;;;31.10;99.90;;;;;;4842364;29;20500;-84
2023/09/11 09:41:56;;;;;;;8.23;5.20;;;31.40;99.90;;;;;;4857602;29;20544;-84
2023/09/11 09:44:28;;;;;;;10.63;5.57;;;31.00;99.90;;;;;;4866862;29;20417;-85
2023/09/11 09:46:53;;;;;;;7.30;5.13;;;31.30;99.90;;;;;;4861098;29;20516;-84
2023/09/11 09:49:21;;;;;;;11.33;4.83;;;31.60;99.90;;;;;;4860932;29;20507;-85
2023/09/11 09:51:46;;;;;;;10.90;5.13;;;32.30;99.90;;;;;;4861459;29;20191;-84
2023/09/11 09:54:12;;;;;;;10.00;5.03;;;31.50;99.90;;;;;;4863025;29;20520;-85
2023/09/11 09:56:39;;;;;;;9.30;5.40;;;31.40;99.90;;;;;;4864499;29;20188;-84
2023/09/11 09:59:06;;;;;;;7.50;5.07;;;31.30;99.90;;;;;;4863821;29;20211;-84
2023/09/11 10:01:44;;;;;;;12.30;5.50;;;30.90;99.90;;;;;;4861397;29;20425;-83
2023/09/11 10:04:15;;;;;;;15.77;5.60;;;30.40;99.90;;;;;;4861375;29;20476;-85
2023/09/11 10:06:40;;;;;;;7.70;4.73;;;31.00;99.90;;;;;;4861637;29;20933;-84
2023/09/11 10:09:09;;;;;;;7.13;5.20;;;31.10;99.90;;;;;;4861753;29;20433;-84
2023/09/11 10:11:37;;;;;;;10.17;5.50;;;31.90;99.90;;;;;;4861516;29;20188;-82
2023/09/11 10:14:05;;;;;;;11.93;6.17;;;32.90;99.90;;;;;;4864592;29;20902;-83
2023/09/11 10:16:31;;;;;;;7.93;4.57;;;32.10;99.90;;;;;;4863973;29;20506;-84
2023/09/11 10:18:58;;;;;;;11.13;5.00;;;32.70;99.90;;;;;;4863039;29;20491;-84
2023/09/11 10:21:25;;;;;;;11.93;5.70;;;32.70;99.90;;;;;;4862378;29;20512;-84
2023/09/11 10:23:52;;;;;;;9.03;5.30;;;32.70;99.90;;;;;;4846654;29;20834;-84
2023/09/11 10:26:41;;;;;;;13.87;5.67;;;33.20;99.90;;;;;;4861732;29;20424;-84
2023/09/11 10:29:11;;;;;;;7.03;5.10;;;33.60;99.90;;;;;;4843969;29;20441;-86
2023/09/11 10:31:48;;;;;;;8.63;5.50;;;33.10;99.90;;;;;;4842880;29;20433;-84
2023/09/11 10:34:13;;;;;;;9.70;5.20;;;33.60;99.90;;;;;;4842514;29;20938;-84
2023/09/11 10:36:45;;;;;;;9.50;5.30;;;32.60;99.90;;;;;;4826572;29;20418;-84
2023/09/11 10:39:13;;;;;;;5.63;4.60;;;32.70;99.90;;;;;;4842480;29;20315;-85
2023/09/11 10:41:40;;;;;;;10.17;4.80;;;33.00;99.90;;;;;;4842822;29;20506;-84
2023/09/11 10:44:06;;;;;;;11.10;4.83;;;32.20;99.90;;;;;;4841122;29;20935;-83
2023/09/11 10:46:39;;;;;;;12.80;5.30;;;32.90;99.90;;;;;;4845795;29;20421;-83
2023/09/11 10:49:16;;;;;;;5.87;4.47;;;33.80;99.90;;;;;;4862561;29;20511;-83
2023/09/11 10:51:42;;;;;;;13.50;5.70;;;33.60;99.90;;;;;;4866457;29;20442;-83
2023/09/11 10:54:11;;;;;;;9.23;4.63;;;33.50;99.90;;;;;;4864904;29;20786;-83
2023/09/11 10:56:36;;;;;;;8.53;5.83;;;31.90;99.90;;;;;;4864451;29;20440;-82
2023/09/11 10:59:03;;;;;;;10.47;5.90;;;32.30;99.90;;;;;;4864023;29;20479;-83
2023/09/11 11:01:31;;;;;;;7.87;5.30;;;32.70;99.90;;;;;;4863687;29;20601;-82
2023/09/11 11:03:57;;;;;;;13.33;5.30;;;32.40;99.90;;;;;;4863965;29;20441;-83
2023/09/11 11:06:24;;;;;;;8.87;5.63;;;32.40;99.90;;;;;;4864056;29;20427;-82
2023/09/11 11:08:49;;;;;;;14.87;5.47;;;31.80;99.90;;;;;;4863902;29;20219;-83
2023/09/11 11:11:27;;;;;;;16.10;5.70;;;32.10;99.90;;;;;;4863887;29;20433;-83
2023/09/11 11:14:23;;;;;;;12.70;5.67;;;32.20;99.90;;;;;;4863981;29;20542;-82
2023/09/11 11:16:55;;;;;;;15.03;4.93;;;32.70;99.90;;;;;;4848679;29;20447;-82
2023/09/11 11:19:25;;;;;;;12.10;4.33;;;33.00;99.90;;;;;;4863488;29;20476;-82
2023/09/11 11:21:51;;;;;;;11.37;5.27;;;33.60;99.90;;;;;;4863509;29;20841;-82
2023/09/11 11:24:17;;;;;;;11.67;5.90;;;33.70;99.90;;;;;;4863474;29;20437;-83
2023/09/11 11:26:44;;;;;;;13.50;5.17;;;33.40;99.90;;;;;;4863851;29;20949;-82
2023/09/11 11:29:09;;;;;;;9.20;5.10;;;33.60;99.90;;;;;;4864005;29;20209;-82
2023/09/11 11:31:36;;;;;;;6.27;4.67;;;33.70;99.90;;;;;;4863246;29;20421;-82
2023/09/11 11:34:02;;;;;;;9.93;5.20;;;33.60;99.90;;;;;;4863772;29;20188;-83
2023/09/11 11:36:29;;;;;;;13.13;5.10;;;33.80;99.90;;;;;;4863629;29;20443;-82
2023/09/11 11:38:56;;;;;;;9.27;5.93;;;33.40;99.90;;;;;;4863225;29;20483;-82
2023/09/11 11:41:22;;;;;;;14.33;5.20;;;33.60;99.90;;;;;;4863253;29;20422;-82
2023/09/11 11:43:49;;;;;;;6.03;5.17;;;33.60;99.90;;;;;;4863369;29;20417;-84
2023/09/11 11:46:15;;;;;;;10.13;5.40;;;34.20;99.90;;;;;;4862986;29;20425;-83
2023/09/11 11:48:42;;;;;;;7.53;5.10;;;34.60;99.90;;;;;;4863226;29;20505;-83
2023/09/11 11:51:08;;;;;;;10.17;5.43;;;34.50;99.90;;;;;;4863056;29;20455;-82
2023/09/11 11:53:34;;;;;;;11.33;5.43;;;34.30;99.90;;;;;;4862813;29;20995;-84
2023/09/11 11:56:03;;;;;;;7.53;4.97;;;34.20;99.90;;;;;;4862135;29;20437;-83
2023/09/11 11:58:28;;;;;;;10.00;5.40;;;34.60;99.90;;;;;;4862935;29;20576;-82
2023/09/11 12:01:00;;;;;;;7.73;4.80;;;34.80;99.90;;;;;;4862136;29;20424;-83
2023/09/11 12:03:27;;;;;;;13.63;5.80;;;35.30;99.90;;;;;;4861534;29;20188;-82
2023/09/11 12:05:54;;;;;;;12.53;5.30;;;35.50;99.90;;;;;;4861473;29;20496;-83
2023/09/11 12:08:21;;;;;;;7.00;5.20;;;35.10;99.90;;;;;;4862448;29;20540;-82
2023/09/11 12:10:51;;;;;;;7.97;5.00;;;35.10;99.90;;;;;;4862671;29;20413;-82
2023/09/11 12:13:24;;;;;;;10.63;4.93;;;35.30;99.90;;;;;;4862803;29;20453;-84
2023/09/11 12:15:54;;;;;;;6.70;5.57;;;35.00;99.90;;;;;;4862995;29;20403;-82
2023/09/11 12:18:22;;;;;;;7.00;5.43;;;35.10;99.90;;;;;;4862464;29;20835;-83
2023/09/11 12:21:06;;;;;;;5.73;4.80;;;34.70;99.00;;;;;;4862693;29;20837;-82
2023/09/11 12:23:32;;;;;;;13.10;5.67;;;35.00;99.10;;;;;;4862951;29;20840;-83
2023/09/11 12:26:02;;;;;;;6.73;5.20;;;35.50;97.90;;;;;;4862587;29;20436;-83
2023/09/11 12:28:28;;;;;;;9.23;4.93;;;35.10;97.50;;;;;;4862123;29;20424;-82
2023/09/11 12:30:54;;;;;;;9.50;6.10;;;35.50;96.50;;;;;;4860988;29;20426;-83
2023/09/11 12:33:28;;;;;;;16.30;6.13;;;35.20;96.50;;;;;;4854710;29;20491;-83
2023/09/11 12:35:56;;;;;;;8.07;5.20;;;35.10;96.70;;;;;;4843766;29;20426;-83